createdAt,value
2023-01-30T00:01:59.015Z,79.10
2023-01-30T00:04:26.907Z,79.25
2023-01-30T00:06:54.746Z,79.17
2023-01-30T00:09:22.706Z,79.00
2023-01-30T00:11:50.624Z,78.88
2023-01-30T00:14:18.490Z,78.94
2023-01-30T00:16:46.448Z,78.75
2023-01-30T00:19:14.356Z,79.06
2023-01-30T00:21:42.356Z,78.91
2023-01-30T00:24:10.439Z,78.49
2023-01-30T00:26:38.463Z,78.54
2023-01-30T00:29:06.485Z,78.45
2023-01-30T00:31:34.401Z,78.13
2023-01-30T00:34:02.383Z,78.70
2023-01-30T00:36:30.802Z,79.04
2023-01-30T00:39:00.050Z,79.20
2023-01-30T00:41:47.971Z,79.28
2023-01-30T00:44:34.383Z,79.85
2023-01-30T00:47:09.319Z,80.20
2023-01-30T00:49:38.303Z,80.52
2023-01-30T00:52:06.552Z,80.64
2023-01-30T00:54:35.001Z,81.07
2023-01-30T00:57:03.041Z,82.65
2023-01-30T00:59:32.440Z,83.21
2023-01-30T01:02:00.552Z,83.64
2023-01-30T01:04:28.758Z,84.17
2023-01-30T01:06:56.628Z,84.80
2023-01-30T01:09:24.558Z,84.92
2023-01-30T01:11:53.842Z,85.09
2023-01-30T01:14:21.713Z,85.70
2023-01-30T01:16:49.785Z,86.15
2023-01-30T01:19:17.901Z,86.46
2023-01-30T01:21:45.970Z,86.71
2023-01-30T01:24:15.330Z,86.79
2023-01-30T01:26:44.372Z,86.83
2023-01-30T01:29:17.048Z,87.13
2023-01-30T01:31:45.833Z,87.24
2023-01-30T01:34:13.751Z,87.75
2023-01-30T01:36:53.773Z,87.77
2023-01-30T01:39:22.546Z,88.31
2023-01-30T01:41:51.829Z,88.44
2023-01-30T01:44:19.906Z,88.69
2023-01-30T01:46:59.875Z,88.58
2023-01-30T01:49:34.806Z,88.78
2023-01-30T01:52:14.437Z,88.62
2023-01-30T01:54:47.760Z,88.77
2023-01-30T01:57:24.467Z,88.86
2023-01-30T02:00:02.606Z,88.49
2023-01-30T02:02:44.134Z,88.53
2023-01-30T02:05:16.724Z,88.31
2023-01-30T02:07:47.255Z,88.46
2023-01-30T02:10:24.743Z,88.40
2023-01-30T02:12:52.650Z,88.27
2023-01-30T02:15:22.447Z,88.26
2023-01-30T02:17:50.369Z,88.06
2023-01-30T02:20:42.390Z,87.97
2023-01-30T02:23:13.192Z,87.76
2023-01-30T02:25:59.864Z,87.48
2023-01-30T02:28:52.479Z,86.99
2023-01-30T02:31:58.142Z,86.73
2023-01-30T02:35:07.778Z,86.31
2023-01-30T02:37:47.333Z,86.45
2023-01-30T02:40:46.439Z,86.07
2023-01-30T02:43:31.856Z,85.53
2023-01-30T02:46:10.123Z,85.57
2023-01-30T02:49:21.219Z,85.57
2023-01-30T02:51:51.693Z,84.95
2023-01-30T02:54:19.597Z,85.35
2023-01-30T02:56:52.689Z,85.34
2023-01-30T02:59:40.282Z,85.53
2023-01-30T03:02:20.277Z,85.81
2023-01-30T03:05:00.750Z,85.07
2023-01-30T03:07:45.792Z,83.98
2023-01-30T03:10:42.235Z,83.81
2023-01-30T03:13:41.228Z,83.59
2023-01-30T03:16:19.120Z,83.51
2023-01-30T03:18:48.588Z,83.08
2023-01-30T03:21:17.830Z,82.30
2023-01-30T03:23:46.993Z,81.62
2023-01-30T03:26:26.364Z,81.20
2023-01-30T03:28:54.836Z,80.59
2023-01-30T03:31:22.901Z,80.09
2023-01-30T03:33:50.987Z,80.15
2023-01-30T03:36:19.397Z,80.66
2023-01-30T03:38:47.473Z,80.83
2023-01-30T03:41:15.522Z,80.67
2023-01-30T03:43:43.691Z,80.92
2023-01-30T03:46:11.684Z,81.71
2023-01-30T03:48:40.242Z,82.20
2023-01-30T03:51:08.566Z,82.43
2023-01-30T03:53:36.545Z,82.21
2023-01-30T03:56:05.028Z,81.93
2023-01-30T03:58:33.497Z,81.70
2023-01-30T04:01:11.425Z,81.82
2023-01-30T04:03:39.456Z,81.78
2023-01-30T04:06:07.561Z,82.15
2023-01-30T04:08:36.087Z,82.33
2023-01-30T04:11:05.211Z,82.10
2023-01-30T04:13:33.606Z,82.26
2023-01-30T04:16:17.406Z,82.45
2023-01-30T04:19:04.085Z,82.61
2023-01-30T04:21:34.021Z,82.26
2023-01-30T04:24:02.001Z,82.60
2023-01-30T04:26:30.153Z,81.80
2023-01-30T04:28:58.966Z,80.43
2023-01-30T04:31:27.745Z,79.92
2023-01-30T04:34:03.404Z,79.10
2023-01-30T04:36:32.054Z,78.56
2023-01-30T04:39:00.293Z,78.20
2023-01-30T04:41:28.849Z,77.83
2023-01-30T04:43:59.990Z,77.50
2023-01-30T04:46:40.118Z,77.48
2023-01-30T04:49:10.168Z,77.70
2023-01-30T04:51:38.348Z,77.53
2023-01-30T04:54:06.845Z,77.84
2023-01-30T04:56:34.789Z,78.14
2023-01-30T04:59:03.156Z,78.38
2023-01-30T05:01:37.889Z,78.30
2023-01-30T05:04:06.985Z,78.22
2023-01-30T05:06:36.834Z,78.28
2023-01-30T05:09:05.753Z,78.04
2023-01-30T05:11:34.841Z,78.11
2023-01-30T05:14:02.862Z,78.50
2023-01-30T05:16:30.984Z,78.48
2023-01-30T05:18:58.858Z,78.61
2023-01-30T05:21:28.785Z,79.24
2023-01-30T05:23:57.879Z,78.82
2023-01-30T05:26:25.930Z,78.85
2023-01-30T05:28:57.810Z,79.06
2023-01-30T05:31:25.813Z,79.26
2023-01-30T05:33:53.997Z,79.56
2023-01-30T05:36:23.626Z,79.46
2023-01-30T05:38:51.690Z,79.68
2023-01-30T05:41:19.651Z,79.96
2023-01-30T05:43:51.447Z,80.44
2023-01-30T05:46:19.541Z,80.74
2023-01-30T05:48:47.804Z,81.06
2023-01-30T05:51:18.567Z,81.36
2023-01-30T05:53:47.318Z,81.77
2023-01-30T05:56:15.902Z,82.15
2023-01-30T05:58:44.617Z,82.76
2023-01-30T06:01:13.216Z,82.87
2023-01-30T06:03:41.242Z,83.18
2023-01-30T06:06:11.604Z,82.78
2023-01-30T06:08:40.169Z,82.95
2023-01-30T06:11:11.226Z,83.15
2023-01-30T06:13:39.205Z,83.46
2023-01-30T06:16:09.684Z,83.74
2023-01-30T06:18:38.934Z,83.86
2023-01-30T06:21:08.243Z,83.38
2023-01-30T06:23:36.182Z,83.36
2023-01-30T06:26:06.276Z,83.99
2023-01-30T06:28:37.034Z,84.33
2023-01-30T06:31:08.839Z,84.00
2023-01-30T06:33:37.411Z,84.13
2023-01-30T06:36:05.644Z,84.57
2023-01-30T06:38:33.583Z,84.77
2023-01-30T06:41:01.988Z,85.07
2023-01-30T06:43:29.989Z,85.28
2023-01-30T06:45:59.741Z,85.58
2023-01-30T06:48:28.148Z,85.48
2023-01-30T06:50:56.133Z,85.42
2023-01-30T06:53:30.324Z,85.29
2023-01-30T06:55:59.941Z,84.72
2023-01-30T06:58:28.635Z,84.50
2023-01-30T07:00:56.729Z,84.23
2023-01-30T07:03:24.825Z,84.22
2023-01-30T07:05:53.047Z,83.71
2023-01-30T07:08:22.592Z,83.88
2023-01-30T07:10:52.545Z,83.61
2023-01-30T07:13:20.960Z,83.39
2023-01-30T07:15:48.966Z,81.74
2023-01-30T07:18:16.778Z,80.55
2023-01-30T07:20:50.818Z,79.58
2023-01-30T07:23:18.979Z,78.78
2023-01-30T07:25:46.884Z,78.09
2023-01-30T07:28:15.030Z,78.37
2023-01-30T07:30:44.880Z,78.33
2023-01-30T07:33:12.777Z,77.73
2023-01-30T07:35:40.804Z,77.07
2023-01-30T07:38:08.829Z,76.73
2023-01-30T07:40:36.907Z,76.35
2023-01-30T07:43:11.579Z,75.81
2023-01-30T07:45:45.782Z,76.03
2023-01-30T07:48:16.576Z,76.14
2023-01-30T07:50:45.422Z,75.12
2023-01-30T07:53:17.573Z,74.90
2023-01-30T07:55:45.592Z,74.64
2023-01-30T07:58:17.562Z,74.35
2023-01-30T08:00:45.756Z,74.44
2023-01-30T08:03:15.784Z,75.03
2023-01-30T08:05:47.272Z,75.36
2023-01-30T08:08:15.497Z,75.81
2023-01-30T08:10:43.864Z,75.51
2023-01-30T08:13:11.803Z,75.35
2023-01-30T08:15:39.862Z,75.20
2023-01-30T08:18:07.743Z,75.09
2023-01-30T08:20:36.327Z,75.52
2023-01-30T08:23:04.744Z,75.86
2023-01-30T08:25:32.887Z,75.61
2023-01-30T08:28:01.654Z,74.37
2023-01-30T08:30:30.681Z,73.90
2023-01-30T08:32:59.217Z,73.80
2023-01-30T08:35:27.742Z,73.77
2023-01-30T08:37:55.650Z,73.80
2023-01-30T08:40:23.642Z,73.42
2023-01-30T08:42:51.519Z,73.07
2023-01-30T08:45:19.448Z,73.02
2023-01-30T08:47:47.306Z,73.60
2023-01-30T08:50:15.574Z,73.89
2023-01-30T08:52:43.481Z,72.75
2023-01-30T08:55:11.956Z,72.71
2023-01-30T08:57:40.154Z,72.91
2023-01-30T09:00:09.310Z,72.86
2023-01-30T09:02:41.199Z,72.69
2023-01-30T09:05:11.119Z,73.04
2023-01-30T09:07:39.095Z,72.75
2023-01-30T09:10:07.259Z,71.80
2023-01-30T09:12:35.177Z,71.82
2023-01-30T09:15:03.481Z,71.70
2023-01-30T09:17:31.502Z,71.75
2023-01-30T09:19:59.701Z,71.25
2023-01-30T09:22:27.658Z,70.66
2023-01-30T09:24:55.600Z,70.51
2023-01-30T09:27:23.566Z,70.93
2023-01-30T09:29:51.757Z,71.62
2023-01-30T09:32:19.667Z,71.33
2023-01-30T09:34:48.020Z,71.30
2023-01-30T09:37:16.193Z,71.86
2023-01-30T09:39:44.045Z,71.69
2023-01-30T09:42:38.085Z,72.06
2023-01-30T09:45:24.355Z,71.92
2023-01-30T09:48:04.497Z,72.08
2023-01-30T09:50:41.651Z,71.89
2023-01-30T09:53:24.006Z,71.69
2023-01-30T09:55:52.581Z,71.79
2023-01-30T09:58:26.897Z,71.38
2023-01-30T10:01:06.818Z,70.86
2023-01-30T10:03:41.492Z,71.29
2023-01-30T10:06:14.540Z,72.28
2023-01-30T10:09:34.197Z,72.04
2023-01-30T10:12:17.195Z,72.31
2023-01-30T10:15:03.451Z,72.39
2023-01-30T10:17:52.964Z,71.59
2023-01-30T10:20:49.451Z,71.58
2023-01-30T10:24:01.943Z,71.80
2023-01-30T10:26:31.810Z,71.61
2023-01-30T10:29:08.600Z,71.67
2023-01-30T10:31:51.636Z,72.18
2023-01-30T10:34:27.264Z,72.39
2023-01-30T10:37:01.100Z,72.29
2023-01-30T10:39:49.652Z,72.53
2023-01-30T10:42:29.811Z,72.54
2023-01-30T10:45:10.527Z,72.59
2023-01-30T10:47:47.143Z,72.69
2023-01-30T10:50:48.941Z,72.59
2023-01-30T10:53:16.853Z,73.00
2023-01-30T10:55:50.244Z,73.27
2023-01-30T10:58:26.591Z,73.13
2023-01-30T11:01:17.019Z,73.42
2023-01-30T11:03:53.197Z,73.70
2023-01-30T11:06:25.793Z,73.86
2023-01-30T11:08:55.430Z,74.08
2023-01-30T11:11:27.321Z,74.07
2023-01-30T11:14:09.783Z,74.43
2023-01-30T11:16:50.377Z,74.56
2023-01-30T11:19:22.871Z,74.65
2023-01-30T11:21:53.880Z,74.33
2023-01-30T11:24:31.177Z,74.05
2023-01-30T11:27:11.428Z,74.58
2023-01-30T11:29:40.119Z,75.58
2023-01-30T11:32:16.163Z,75.70
2023-01-30T11:34:44.386Z,75.40
2023-01-30T11:37:27.846Z,75.23
2023-01-30T11:39:56.572Z,75.29
2023-01-30T11:42:31.618Z,75.80
2023-01-30T11:45:17.827Z,75.76
2023-01-30T11:48:04.899Z,76.54
2023-01-30T11:50:43.526Z,76.68
2023-01-30T11:53:31.804Z,76.75
2023-01-30T11:56:10.638Z,76.64
2023-01-30T11:58:41.411Z,77.35
2023-01-30T12:01:11.619Z,77.38
2023-01-30T12:03:47.568Z,77.13
2023-01-30T12:06:31.193Z,76.67
2023-01-30T12:09:00.171Z,76.47
2023-01-30T12:11:45.163Z,76.35
2023-01-30T12:14:38.508Z,76.09
2023-01-30T12:17:26.454Z,76.47
2023-01-30T12:20:05.850Z,76.67
2023-01-30T12:22:46.059Z,76.74
2023-01-30T12:25:20.725Z,76.15
2023-01-30T12:28:02.693Z,75.71
2023-01-30T12:30:45.423Z,76.48
2023-01-30T12:36:08.124Z,76.54
2023-01-30T12:38:58.392Z,76.75
2023-01-30T12:41:45.919Z,76.80
2023-01-30T12:44:41.983Z,76.98
2023-01-30T12:47:36.679Z,76.82
2023-01-30T12:50:35.659Z,77.13
2023-01-30T12:53:29.537Z,77.76
2023-01-30T12:56:38.068Z,77.58
2023-01-30T12:59:14.362Z,77.38
2023-01-30T13:02:14.792Z,77.14
2023-01-30T13:05:13.508Z,77.24
2023-01-30T13:07:50.512Z,77.52
2023-01-30T13:10:31.000Z,77.69
2023-01-30T13:13:05.038Z,78.19
2023-01-30T13:15:35.489Z,78.30
2023-01-30T13:18:03.309Z,77.97
2023-01-30T13:20:31.921Z,78.01
2023-01-30T13:23:17.257Z,78.71
2023-01-30T13:26:01.996Z,78.56
2023-01-30T13:28:38.200Z,78.32
2023-01-30T13:31:11.876Z,78.84
2023-01-30T13:33:44.757Z,78.54
2023-01-30T13:36:15.840Z,78.35
2023-01-30T13:38:56.497Z,78.48
2023-01-30T13:41:27.744Z,78.70
2023-01-30T13:43:56.088Z,78.75
2023-01-30T13:46:27.972Z,78.47
2023-01-30T13:49:24.915Z,78.80
2023-01-30T13:52:31.799Z,78.68
2023-01-30T13:55:27.355Z,78.67
2023-01-30T13:57:58.369Z,78.52
2023-01-30T14:00:34.800Z,78.64
2023-01-30T14:03:08.640Z,78.76
2023-01-30T14:05:52.050Z,78.85
2023-01-30T14:08:23.175Z,78.72
2023-01-30T14:10:51.378Z,79.19
2023-01-30T14:13:19.323Z,79.46
2023-01-30T14:16:04.396Z,79.29
2023-01-30T14:18:42.598Z,79.58
2023-01-30T14:21:26.152Z,79.73
2023-01-30T14:24:05.696Z,79.99
2023-01-30T14:26:48.995Z,79.65
2023-01-30T14:29:42.240Z,80.08
2023-01-30T14:32:13.762Z,80.25
2023-01-30T14:34:44.540Z,80.27
2023-01-30T14:37:43.631Z,80.00
2023-01-30T14:40:20.932Z,80.15
2023-01-30T14:43:16.796Z,80.29
2023-01-30T14:46:00.867Z,80.72
2023-01-30T14:48:30.169Z,81.00
2023-01-30T14:51:12.089Z,81.13
2023-01-30T14:54:04.813Z,81.09
2023-01-30T14:56:59.451Z,81.24
2023-01-30T14:59:38.773Z,81.52
2023-01-30T15:02:12.680Z,81.58
2023-01-30T15:05:05.202Z,81.91
2023-01-30T15:07:44.399Z,82.16
2023-01-30T15:10:52.921Z,82.25
2023-01-30T15:13:30.119Z,82.15
2023-01-30T15:16:20.077Z,82.18
2023-01-30T15:19:25.908Z,82.28
2023-01-30T15:22:16.766Z,82.73
2023-01-30T15:24:44.647Z,82.74
2023-01-30T15:27:40.308Z,82.82
2023-01-30T15:30:08.431Z,82.84
2023-01-30T15:32:36.465Z,83.03
2023-01-30T15:35:16.966Z,83.31
2023-01-30T15:38:03.054Z,83.58
2023-01-30T15:40:31.812Z,83.74
2023-01-30T15:43:13.840Z,83.95
2023-01-30T15:45:41.886Z,84.07
2023-01-30T15:48:13.058Z,84.60
2023-01-30T15:50:48.486Z,84.53
2023-01-30T15:53:17.344Z,84.65
2023-01-30T15:55:46.862Z,84.96
2023-01-30T15:58:21.196Z,85.18
2023-01-30T16:00:53.604Z,85.49
2023-01-30T16:03:27.133Z,85.47
2023-01-30T16:05:58.624Z,86.02
2023-01-30T16:08:32.535Z,86.55
2023-01-30T16:11:01.057Z,87.04
2023-01-30T16:13:29.931Z,87.37
2023-01-30T16:16:10.566Z,88.06
2023-01-30T16:18:44.282Z,88.83
2023-01-30T16:21:31.818Z,89.43
2023-01-30T16:24:17.490Z,90.34
2023-01-30T16:26:48.833Z,90.13
2023-01-30T16:29:21.730Z,90.83
2023-01-30T16:31:53.863Z,91.17
2023-01-30T16:34:36.818Z,92.15
2023-01-30T16:37:20.417Z,92.72
2023-01-30T16:40:14.671Z,93.31
2023-01-30T16:42:58.459Z,93.64
2023-01-30T16:45:35.576Z,94.20
2023-01-30T16:48:30.834Z,94.79
2023-01-30T16:50:59.294Z,94.93
2023-01-30T16:53:30.853Z,94.72
2023-01-30T16:56:14.814Z,94.56
2023-01-30T16:58:48.868Z,95.05
2023-01-30T17:01:19.057Z,95.13
2023-01-30T17:04:00.131Z,95.71
2023-01-30T17:06:39.932Z,96.49
2023-01-30T17:09:30.547Z,96.79
2023-01-30T17:11:58.460Z,96.87
2023-01-30T17:14:31.568Z,96.97
2023-01-30T17:17:01.806Z,97.47
2023-01-30T17:19:30.999Z,97.80
2023-01-30T17:22:01.012Z,97.78
2023-01-30T17:24:29.235Z,98.12
2023-01-30T17:27:02.701Z,98.18
2023-01-30T17:29:42.535Z,98.59
2023-01-30T17:32:14.128Z,99.00
2023-01-30T17:34:41.919Z,99.31
2023-01-30T17:37:18.566Z,99.39
2023-01-30T17:39:48.858Z,99.86
2023-01-30T17:42:22.438Z,99.98
2023-01-30T17:44:50.782Z,99.77
2023-01-30T17:47:18.810Z,99.65
2023-01-30T17:49:46.934Z,99.58
2023-01-30T17:52:15.086Z,99.74
2023-01-30T17:54:43.164Z,99.96
2023-01-30T17:57:15.812Z,99.67
2023-01-30T17:59:43.961Z,99.69
2023-01-30T18:02:15.876Z,99.91
2023-01-30T18:04:46.477Z,99.69
2023-01-30T18:07:17.444Z,99.75
2023-01-30T18:09:45.523Z,99.95
2023-01-30T18:12:13.522Z,99.84
2023-01-30T18:14:41.351Z,99.85
2023-01-30T18:17:09.976Z,99.74
2023-01-30T18:19:40.635Z,99.60
2023-01-30T18:22:08.612Z,99.75
2023-01-30T18:24:36.441Z,99.86
2023-01-30T18:27:04.389Z,99.95
2023-01-30T18:29:35.253Z,99.94
2023-01-30T18:32:05.898Z,99.95
2023-01-30T18:34:33.844Z,99.81
2023-01-30T18:37:01.646Z,99.25
2023-01-30T18:39:29.748Z,98.77
2023-01-30T18:41:57.728Z,98.53
2023-01-30T18:44:25.588Z,98.71
2023-01-30T18:46:53.434Z,98.39
2023-01-30T18:49:21.257Z,98.97
2023-01-30T18:51:49.215Z,98.72
2023-01-30T18:54:18.164Z,98.70
2023-01-30T18:56:45.972Z,98.83
2023-01-30T18:59:13.864Z,98.65
2023-01-30T19:01:44.948Z,98.22
2023-01-30T19:04:12.889Z,98.37
2023-01-30T19:06:43.340Z,97.83
2023-01-30T19:09:16.021Z,97.59
2023-01-30T19:12:02.576Z,97.69
2023-01-30T19:14:30.447Z,97.52
2023-01-30T19:16:58.571Z,97.38
2023-01-30T19:19:27.270Z,97.03
2023-01-30T19:21:55.225Z,97.16
2023-01-30T19:24:25.970Z,96.55
2023-01-30T19:26:53.929Z,96.34
2023-01-30T19:29:21.906Z,96.35
2023-01-30T19:31:50.189Z,96.29
2023-01-30T19:34:18.366Z,96.50
2023-01-30T19:36:46.467Z,96.41
2023-01-30T19:39:14.417Z,96.24
2023-01-30T19:41:42.309Z,95.64
2023-01-30T19:44:11.885Z,95.37
2023-01-30T19:46:40.232Z,95.54
2023-01-30T19:49:08.237Z,95.46
2023-01-30T19:51:36.302Z,95.68
2023-01-30T19:54:07.128Z,95.82
2023-01-30T19:56:36.708Z,95.93
2023-01-30T19:59:04.961Z,96.09
2023-01-30T20:01:37.070Z,96.24
2023-01-30T20:04:05.785Z,96.10
2023-01-30T20:06:35.656Z,96.05
2023-01-30T20:09:06.747Z,95.73
2023-01-30T20:11:35.851Z,95.73
2023-01-30T20:14:07.037Z,95.44
2023-01-30T20:16:36.274Z,95.41
2023-01-30T20:19:08.238Z,95.10
2023-01-30T20:21:36.422Z,94.79
2023-01-30T20:24:05.108Z,94.76
2023-01-30T20:26:36.032Z,94.95
2023-01-30T20:29:04.539Z,95.38
2023-01-30T20:31:34.738Z,95.62
2023-01-30T20:34:06.479Z,95.90
2023-01-30T20:36:34.703Z,96.88
2023-01-30T20:39:04.405Z,97.39
2023-01-30T20:41:35.121Z,97.79
2023-01-30T20:44:05.252Z,97.82
2023-01-30T20:46:41.465Z,98.18
2023-01-30T20:49:14.923Z,98.95
2023-01-30T20:51:43.366Z,99.83
2023-01-30T20:54:14.336Z,99.46
2023-01-30T20:56:45.828Z,99.57
2023-01-30T20:59:16.739Z,99.53
2023-01-30T21:01:45.036Z,99.89
2023-01-30T21:04:15.694Z,100.00
2023-01-30T21:06:46.085Z,100.00
2023-01-30T21:09:19.350Z,100.00
2023-01-30T21:11:48.675Z,100.00
2023-01-30T21:14:17.540Z,100.00
2023-01-30T21:16:46.405Z,99.70
2023-01-30T21:19:17.105Z,99.41
2023-01-30T21:21:51.368Z,99.05
2023-01-30T21:24:24.977Z,98.80
2023-01-30T21:26:54.650Z,98.85
2023-01-30T21:29:24.525Z,98.76
2023-01-30T21:32:00.239Z,98.80
2023-01-30T21:34:28.154Z,98.51
2023-01-30T21:37:14.741Z,98.45
2023-01-30T21:40:01.417Z,98.20
2023-01-30T21:42:48.369Z,97.89
2023-01-30T21:45:17.908Z,98.18
2023-01-30T21:47:50.742Z,98.13
2023-01-30T21:50:22.162Z,97.88
2023-01-30T21:52:50.119Z,98.05
2023-01-30T21:55:18.326Z,98.19
2023-01-30T21:57:46.486Z,97.80
2023-01-30T22:00:14.700Z,97.94
2023-01-30T22:02:42.682Z,97.52
2023-01-30T22:05:17.775Z,97.13
2023-01-30T22:07:45.930Z,97.17
2023-01-30T22:10:17.308Z,97.01
2023-01-30T22:12:55.038Z,97.32
2023-01-30T22:15:41.337Z,97.55
2023-01-30T22:18:09.247Z,97.63
2023-01-30T22:20:37.833Z,97.66
2023-01-30T22:23:05.994Z,98.02
2023-01-30T22:25:34.165Z,98.11
2023-01-30T22:28:10.211Z,97.85
2023-01-30T22:30:40.396Z,97.54
2023-01-30T22:33:08.920Z,97.52
2023-01-30T22:35:37.322Z,97.40
2023-01-30T22:38:13.622Z,97.24
2023-01-30T22:40:43.083Z,97.67
2023-01-30T22:43:12.105Z,97.61
2023-01-30T22:45:39.907Z,98.16
2023-01-30T22:48:08.396Z,98.27
2023-01-30T22:50:36.223Z,97.65
2023-01-30T22:53:04.506Z,97.23
2023-01-30T22:55:35.811Z,97.38
2023-01-30T22:58:06.747Z,97.80
2023-01-30T23:00:34.668Z,97.39
2023-01-30T23:03:04.102Z,97.37
2023-01-30T23:05:32.992Z,97.12
2023-01-30T23:08:04.005Z,96.86
2023-01-30T23:10:32.399Z,97.32
2023-01-30T23:13:09.297Z,97.29
2023-01-30T23:15:43.600Z,97.20
2023-01-30T23:18:29.904Z,97.19
2023-01-30T23:21:00.905Z,96.98
2023-01-30T23:23:28.827Z,96.91
2023-01-30T23:25:57.161Z,96.73
2023-01-30T23:28:25.045Z,96.13
2023-01-30T23:30:53.707Z,96.87
2023-01-30T23:33:21.877Z,96.81
2023-01-30T23:35:52.739Z,96.77
2023-01-30T23:38:21.921Z,97.09
2023-01-30T23:40:49.785Z,97.02
2023-01-30T23:43:20.249Z,97.24
2023-01-30T23:45:48.289Z,97.18
2023-01-30T23:48:16.286Z,97.23
2023-01-30T23:50:44.220Z,97.28
2023-01-30T23:53:12.951Z,97.40
2023-01-30T23:55:52.258Z,97.33
2023-01-30T23:58:20.759Z,97.10
